Horsham, PA (19044)

4:20 PM EDT on August 04, 2015 (GMT -0400)
HorshamWeather.Com | | Change Station
CLOSE
Current Station
Personal Weather Station
Location: Horsham, PA
Elevation: 303 ft
Nearby Weather Stations

Elev 303 ft 40.19 °N, 75.13 °W | Updated 12 seconds ago

Clear
Clear
87.2 °F
Feels Like 87 °F
N
2.0
Wind Variable Wind from West
Gusts 12.0 mph

Today
High -- | Low -- °F
--% Chance of Precip.
Yesterday
High -- | Low -- °F
Precip. -- in
6:01 AM 8:11 PM
Waning Gibbous, 75% visible
Pressure 29.88 in
Visibility 10.0 miles
Clouds Clear
Heat Index 87 °F
Dew Point 60 °F
Humidity 40%
Rainfall 0.20 in
Snow Depth Not available.
UV 7 out of 12
Pollen 7.30 out of 12
Air Quality Not available.
Flu Activity Not available.
METAR KLOM 041955Z AUTO 26008G18KT 230V300 10SM CLR 31/15 A2988 RMK AO1

More Conditions Fewer Conditions

Pressure 29.88 in
Visibility 10.0 miles
Clouds Clear
Heat Index 87 °F
Dew Point 60 °F
Humidity 40%
Rainfall 0.20 in
Snow Depth Not available.
UV 7 out of 12
Pollen 7.30 out of 12
Air Quality Not available.
Flu Activity Not available.
METAR KLOM 041955Z AUTO 26008G18KT 230V300 10SM CLR 31/15 A2988 RMK AO1

More Conditions Fewer Conditions

10-Day Weather Forecast

×

Almanac

Astronomy

Aug. 04, 2015 Rise Set
Actual Time
Civil Twilight
Nautical Twilight
Astronomical Twilight
Moon
Length of Visible Light
Length of Day
Tomorrow will be .
, % of the Moon is Illuminated

Today's Extremes

State Highs State Lows

Community

WunderPhotos

Upload Photos

1,843,963 photos uploaded!

WunderBlogs® & News

Nearby

Air Quality

  Air Quality AQ Index Pollutant
Not available.

Snow Depth

Station Depth Elevation

Earthquake Activity

City Distance Mag. Time & Date
Minimum magnitude displayed is 2.5.

Coastal Water Temperatures

Place Temperature

Stations

Nearby Weather Stations

Station Location Temp. Windchill Dew Point Humidity Wind Precip. Elev Updated Type